sensor_id;sensor_type;location;lat;lon;timestamp;pressure;altitude;pressure_sealevel;temperature
65738;BMP280;52478;51.844;6.582;2023-12-22T00:02:13;99735.13;;;21.08
65738;BMP280;52478;51.844;6.582;2023-12-22T00:04:41;99735.81;;;21.01
65738;BMP280;52478;51.844;6.582;2023-12-22T00:07:07;99740.81;;;21.03
65738;BMP280;52478;51.844;6.582;2023-12-22T00:09:34;99741.00;;;20.97
65738;BMP280;52478;51.844;6.582;2023-12-22T00:12:00;99749.94;;;21.03
65738;BMP280;52478;51.844;6.582;2023-12-22T00:14:27;99743.00;;;20.97
65738;BMP280;52478;51.844;6.582;2023-12-22T00:16:53;99746.34;;;20.95
65738;BMP280;52478;51.844;6.582;2023-12-22T00:19:19;99751.72;;;20.93
65738;BMP280;52478;51.844;6.582;2023-12-22T00:21:47;99761.69;;;20.89
65738;BMP280;52478;51.844;6.582;2023-12-22T00:24:14;99772.09;;;20.88
65738;BMP280;52478;51.844;6.582;2023-12-22T00:26:40;99774.25;;;20.82
65738;BMP280;52478;51.844;6.582;2023-12-22T00:29:06;99773.16;;;20.85
65738;BMP280;52478;51.844;6.582;2023-12-22T00:31:33;99777.78;;;20.83
65738;BMP280;52478;51.844;6.582;2023-12-22T00:33:59;99784.25;;;20.78
65738;BMP280;52478;51.844;6.582;2023-12-22T00:36:26;99786.44;;;20.72
65738;BMP280;52478;51.844;6.582;2023-12-22T00:38:54;99769.75;;;20.72
65738;BMP280;52478;51.844;6.582;2023-12-22T00:41:20;99781.59;;;20.72
65738;BMP280;52478;51.844;6.582;2023-12-22T00:43:47;99779.34;;;20.71
65738;BMP280;52478;51.844;6.582;2023-12-22T00:46:13;99781.75;;;20.67
65738;BMP280;52478;51.844;6.582;2023-12-22T00:48:40;99779.16;;;20.69
65738;BMP280;52478;51.844;6.582;2023-12-22T00:51:06;99781.53;;;20.65
65738;BMP280;52478;51.844;6.582;2023-12-22T00:53:33;99783.41;;;20.70
65738;BMP280;52478;51.844;6.582;2023-12-22T00:56:01;99784.72;;;20.69
65738;BMP280;52478;51.844;6.582;2023-12-22T00:58:28;99789.34;;;20.66
65738;BMP280;52478;51.844;6.582;2023-12-22T01:00:54;99788.03;;;20.67
65738;BMP280;52478;51.844;6.582;2023-12-22T01:03:21;99788.16;;;20.62
65738;BMP280;52478;51.844;6.582;2023-12-22T01:05:47;99792.31;;;20.68
65738;BMP280;52478;51.844;6.582;2023-12-22T01:08:14;99794.53;;;20.70
65738;BMP280;52478;51.844;6.582;2023-12-22T01:10:40;99788.56;;;20.66
65738;BMP280;52478;51.844;6.582;2023-12-22T01:13:08;99786.69;;;20.61
65738;BMP280;52478;51.844;6.582;2023-12-22T01:15:34;99801.13;;;20.59
65738;BMP280;52478;51.844;6.582;2023-12-22T01:18:01;99808.91;;;20.61
65738;BMP280;52478;51.844;6.582;2023-12-22T01:20:27;99815.97;;;20.62
65738;BMP280;52478;51.844;6.582;2023-12-22T01:22:54;99837.06;;;20.57
65738;BMP280;52478;51.844;6.582;2023-12-22T01:25:20;99820.03;;;20.61
65738;BMP280;52478;51.844;6.582;2023-12-22T01:27:47;99809.47;;;20.59
65738;BMP280;52478;51.844;6.582;2023-12-22T01:30:16;99818.38;;;20.58
65738;BMP280;52478;51.844;6.582;2023-12-22T01:32:42;99809.88;;;20.63
65738;BMP280;52478;51.844;6.582;2023-12-22T01:35:09;99815.44;;;20.63
65738;BMP280;52478;51.844;6.582;2023-12-22T01:37:35;99823.78;;;20.63
65738;BMP280;52478;51.844;6.582;2023-12-22T01:40:02;99818.91;;;20.56
65738;BMP280;52478;51.844;6.582;2023-12-22T01:42:29;99821.16;;;20.58
65738;BMP280;52478;51.844;6.582;2023-12-22T01:44:55;99825.41;;;20.59
65738;BMP280;52478;51.844;6.582;2023-12-22T01:47:23;99822.28;;;20.62
65738;BMP280;52478;51.844;6.582;2023-12-22T01:49:50;99839.31;;;20.59
65738;BMP280;52478;51.844;6.582;2023-12-22T01:52:17;99842.28;;;20.61
65738;BMP280;52478;51.844;6.582;2023-12-22T01:54:44;99836.47;;;20.51
65738;BMP280;52478;51.844;6.582;2023-12-22T01:57:13;99841.88;;;20.57
65738;BMP280;52478;51.844;6.582;2023-12-22T01:59:40;99852.19;;;20.49
65738;BMP280;52478;51.844;6.582;2023-12-22T02:02:07;99865.22;;;20.54
65738;BMP280;52478;51.844;6.582;2023-12-22T02:04:35;99872.28;;;20.55
65738;BMP280;52478;51.844;6.582;2023-12-22T02:07:02;99866.72;;;20.55
65738;BMP280;52478;51.844;6.582;2023-12-22T02:09:29;99872.94;;;20.48
65738;BMP280;52478;51.844;6.582;2023-12-22T02:11:56;99862.13;;;20.44
65738;BMP280;52478;51.844;6.582;2023-12-22T02:14:22;99852.09;;;20.41
65738;BMP280;52478;51.844;6.582;2023-12-22T02:16:53;99836.53;;;20.38
65738;BMP280;52478;51.844;6.582;2023-12-22T02:19:41;99843.22;;;20.43
65738;BMP280;52478;51.844;6.582;2023-12-22T02:22:12;99848.22;;;20.44
65738;BMP280;52478;51.844;6.582;2023-12-22T02:24:40;99854.56;;;20.45
65738;BMP280;52478;51.844;6.582;2023-12-22T02:27:17;99831.78;;;20.46
65738;BMP280;52478;51.844;6.582;2023-12-22T02:29:48;99844.75;;;20.44
65738;BMP280;52478;51.844;6.582;2023-12-22T02:32:22;99843.22;;;20.43
65738;BMP280;52478;51.844;6.582;2023-12-22T02:34:51;99835.97;;;20.40
65738;BMP280;52478;51.844;6.582;2023-12-22T02:37:20;99832.78;;;20.36
65738;BMP280;52478;51.844;6.582;2023-12-22T02:39:49;99848.16;;;20.37
65738;BMP280;52478;51.844;6.582;2023-12-22T02:42:16;99854.34;;;20.43
65738;BMP280;52478;51.844;6.582;2023-12-22T02:44:43;99872.09;;;20.40
65738;BMP280;52478;51.844;6.582;2023-12-22T02:47:10;99881.41;;;20.42
65738;BMP280;52478;51.844;6.582;2023-12-22T02:49:36;99875.63;;;20.40
65738;BMP280;52478;51.844;6.582;2023-12-22T02:52:03;99881.00;;;20.38
65738;BMP280;52478;51.844;6.582;2023-12-22T02:54:30;99875.00;;;20.34
65738;BMP280;52478;51.844;6.582;2023-12-22T02:56:59;99871.47;;;20.34
65738;BMP280;52478;51.844;6.582;2023-12-22T02:59:26;99862.31;;;20.26
65738;BMP280;52478;51.844;6.582;2023-12-22T03:01:53;99867.34;;;20.27
65738;BMP280;52478;51.844;6.582;2023-12-22T03:04:20;99843.31;;;20.17
65738;BMP280;52478;51.844;6.582;2023-12-22T03:06:47;99817.66;;;20.11
65738;BMP280;52478;51.844;6.582;2023-12-22T03:09:13;99823.22;;;20.11
65738;BMP280;52478;51.844;6.582;2023-12-22T03:11:40;99827.53;;;20.12
65738;BMP280;52478;51.844;6.582;2023-12-22T03:14:07;99840.13;;;20.13
65738;BMP280;52478;51.844;6.582;2023-12-22T03:16:34;99837.34;;;20.13
65738;BMP280;52478;51.844;6.582;2023-12-22T03:19:01;99860.72;;;20.17
65738;BMP280;52478;51.844;6.582;2023-12-22T03:21:27;99861.47;;;20.18
65738;BMP280;52478;51.844;6.582;2023-12-22T03:23:53;99880.69;;;20.16
65738;BMP280;52478;51.844;6.582;2023-12-22T03:26:20;99878.78;;;20.11
65738;BMP280;52478;51.844;6.582;2023-12-22T03:28:47;99870.69;;;20.13
65738;BMP280;52478;51.844;6.582;2023-12-22T03:31:14;99875.91;;;20.16
65738;BMP280;52478;51.844;6.582;2023-12-22T03:33:41;99883.72;;;20.18
65738;BMP280;52478;51.844;6.582;2023-12-22T03:36:07;99884.13;;;20.22
65738;BMP280;52478;51.844;6.582;2023-12-22T03:38:34;99898.75;;;20.22
65738;BMP280;52478;51.844;6.582;2023-12-22T03:41:01;99893.72;;;20.21
65738;BMP280;52478;51.844;6.582;2023-12-22T03:43:27;99870.41;;;20.24
65738;BMP280;52478;51.844;6.582;2023-12-22T03:45:55;99862.97;;;20.19
65738;BMP280;52478;51.844;6.582;2023-12-22T03:48:22;99879.97;;;20.15
65738;BMP280;52478;51.844;6.582;2023-12-22T03:50:49;99881.13;;;20.20
65738;BMP280;52478;51.844;6.582;2023-12-22T03:53:15;99887.09;;;20.24
65738;BMP280;52478;51.844;6.582;2023-12-22T03:55:42;99888.28;;;20.28
65738;BMP280;52478;51.844;6.582;2023-12-22T03:58:09;99894.91;;;20.25
65738;BMP280;52478;51.844;6.582;2023-12-22T04:00:35;99901.13;;;20.18
65738;BMP280;52478;51.844;6.582;2023-12-22T04:03:02;99883.72;;;20.18
65738;BMP280;52478;51.844;6.582;2023-12-22T04:05:30;99893.13;;;20.15
65738;BMP280;52478;51.844;6.582;2023-12-22T04:07:56;99906.66;;;20.18
65738;BMP280;52478;51.844;6.582;2023-12-22T04:10:23;99902.63;;;20.19
65738;BMP280;52478;51.844;6.582;2023-12-22T04:12:50;99904.53;;;20.24
65738;BMP280;52478;51.844;6.582;2023-12-22T04:15:16;99893.41;;;20.24
65738;BMP280;52478;51.844;6.582;2023-12-22T04:17:42;99888.59;;;20.25
65738;BMP280;52478;51.844;6.582;2023-12-22T04:20:09;99888.59;;;20.25
65738;BMP280;52478;51.844;6.582;2023-12-22T04:22:37;99879.19;;;20.28
65738;BMP280;52478;51.844;6.582;2023-12-22T04:25:04;99889.88;;;20.24
65738;BMP280;52478;51.844;6.582;2023-12-22T04:27:32;99890.94;;;20.21
65738;BMP280;52478;51.844;6.582;2023-12-22T04:29:59;99901.53;;;20.22
65738;BMP280;52478;51.844;6.582;2023-12-22T04:32:25;99912.09;;;20.24
65738;BMP280;52478;51.844;6.582;2023-12-22T04:34:52;99891.59;;;20.27
65738;BMP280;52478;51.844;6.582;2023-12-22T04:37:18;99892.03;;;20.31
65738;BMP280;52478;51.844;6.582;2023-12-22T04:39:47;99885.38;;;20.34
65738;BMP280;52478;51.844;6.582;2023-12-22T04:42:13;99888.34;;;20.36
65738;BMP280;52478;51.844;6.582;2023-12-22T04:44:40;99882.47;;;20.39
65738;BMP280;52478;51.844;6.582;2023-12-22T04:47:07;99886.44;;;20.44
65738;BMP280;52478;51.844;6.582;2023-12-22T04:49:33;99882.56;;;20.47
65738;BMP280;52478;51.844;6.582;2023-12-22T04:51:59;99877.94;;;20.49
65738;BMP280;52478;51.844;6.582;2023-12-22T04:54:26;99884.47;;;20.52
65738;BMP280;52478;51.844;6.582;2023-12-22T04:56:54;99879.13;;;20.54
65738;BMP280;52478;51.844;6.582;2023-12-22T04:59:21;99883.03;;;20.58
65738;BMP280;52478;51.844;6.582;2023-12-22T05:01:47;99886.03;;;20.60
65738;BMP280;52478;51.844;6.582;2023-12-22T05:04:14;99904.41;;;20.63
65738;BMP280;52478;51.844;6.582;2023-12-22T05:06:42;99919.78;;;20.64
65738;BMP280;52478;51.844;6.582;2023-12-22T05:09:10;99916.91;;;20.70
65738;BMP280;52478;51.844;6.582;2023-12-22T05:11:37;99912.63;;;20.69
65738;BMP280;52478;51.844;6.582;2023-12-22T05:14:05;99908.78;;;20.72
65738;BMP280;52478;51.844;6.582;2023-12-22T05:16:32;99909.72;;;20.74
65738;BMP280;52478;51.844;6.582;2023-12-22T05:18:58;99907.69;;;20.75
65738;BMP280;52478;51.844;6.582;2023-12-22T05:21:25;99916.44;;;20.79
65738;BMP280;52478;51.844;6.582;2023-12-22T05:23:53;99920.72;;;20.80
65738;BMP280;52478;51.844;6.582;2023-12-22T05:26:19;99927.22;;;20.82
65738;BMP280;52478;51.844;6.582;2023-12-22T05:28:46;99935.56;;;20.82
65738;BMP280;52478;51.844;6.582;2023-12-22T05:31:16;99939.28;;;20.85
65738;BMP280;52478;51.844;6.582;2023-12-22T05:33:43;99918.34;;;20.84
65738;BMP280;52478;51.844;6.582;2023-12-22T05:36:09;99925.63;;;20.87
65738;BMP280;52478;51.844;6.582;2023-12-22T05:38:37;99922.47;;;20.90
65738;BMP280;52478;51.844;6.582;2023-12-22T05:41:04;99928.03;;;20.90
65738;BMP280;52478;51.844;6.582;2023-12-22T05:43:30;99927.16;;;20.95
65738;BMP280;52478;51.844;6.582;2023-12-22T05:45:57;99931.44;;;20.96
65738;BMP280;52478;51.844;6.582;2023-12-22T05:48:26;99937.22;;;20.98
65738;BMP280;52478;51.844;6.582;2023-12-22T05:50:53;99935.72;;;20.97
65738;BMP280;52478;51.844;6.582;2023-12-22T05:53:19;99934.09;;;21.02
65738;BMP280;52478;51.844;6.582;2023-12-22T05:55:46;99930.00;;;21.03
65738;BMP280;52478;51.844;6.582;2023-12-22T05:58:12;99938.38;;;21.03
65738;BMP280;52478;51.844;6.582;2023-12-22T06:00:39;99923.38;;;21.06
65738;BMP280;52478;51.844;6.582;2023-12-22T06:03:05;99920.59;;;21.06
65738;BMP280;52478;51.844;6.582;2023-12-22T06:05:33;99942.84;;;21.06
65738;BMP280;52478;51.844;6.582;2023-12-22T06:08:00;99933.22;;;21.07
65738;BMP280;52478;51.844;6.582;2023-12-22T06:10:26;99916.50;;;21.07
65738;BMP280;52478;51.844;6.582;2023-12-22T06:12:53;99907.63;;;21.08
65738;BMP280;52478;51.844;6.582;2023-12-22T06:15:19;99900.34;;;21.05
65738;BMP280;52478;51.844;6.582;2023-12-22T06:17:46;99893.84;;;21.03
65738;BMP280;52478;51.844;6.582;2023-12-22T06:20:12;99904.97;;;21.03
65738;BMP280;52478;51.844;6.582;2023-12-22T06:22:40;99896.78;;;20.97
65738;BMP280;52478;51.844;6.582;2023-12-22T06:25:08;99936.47;;;20.98
65738;BMP280;52478;51.844;6.582;2023-12-22T06:27:34;99932.72;;;20.95
65738;BMP280;52478;51.844;6.582;2023-12-22T06:30:02;99932.00;;;20.95
65738;BMP280;52478;51.844;6.582;2023-12-22T06:32:29;99901.41;;;20.95
65738;BMP280;52478;51.844;6.582;2023-12-22T06:34:55;99891.34;;;20.92
65738;BMP280;52478;51.844;6.582;2023-12-22T06:37:24;99894.13;;;20.92
65738;BMP280;52478;51.844;6.582;2023-12-22T06:39:52;99901.50;;;20.89
65738;BMP280;52478;51.844;6.582;2023-12-22T06:42:18;99920.47;;;20.91
65738;BMP280;52478;51.844;6.582;2023-12-22T06:44:46;99920.47;;;20.91
65738;BMP280;52478;51.844;6.582;2023-12-22T06:47:12;99920.47;;;20.91
65738;BMP280;52478;51.844;6.582;2023-12-22T06:49:39;99923.59;;;20.87
65738;BMP280;52478;51.844;6.582;2023-12-22T06:52:05;99914.47;;;20.87
65738;BMP280;52478;51.844;6.582;2023-12-22T06:54:32;99916.75;;;20.88
65738;BMP280;52478;51.844;6.582;2023-12-22T06:57:00;99908.91;;;20.87
65738;BMP280;52478;51.844;6.582;2023-12-22T06:59:26;99906.91;;;20.87
65738;BMP280;52478;51.844;6.582;2023-12-22T07:01:53;99901.34;;;20.87
65738;BMP280;52478;51.844;6.582;2023-12-22T07:04:20;99894.78;;;20.85
65738;BMP280;52478;51.844;6.582;2023-12-22T07:06:47;99903.13;;;20.85
65738;BMP280;52478;51.844;6.582;2023-12-22T07:09:32;99892.53;;;20.76
65738;BMP280;52478;51.844;6.582;2023-12-22T07:11:59;99895.13;;;20.81
65738;BMP280;52478;51.844;6.582;2023-12-22T07:14:26;99877.28;;;20.77
65738;BMP280;52478;51.844;6.582;2023-12-22T07:16:53;99874.31;;;20.75
65738;BMP280;52478;51.844;6.582;2023-12-22T07:19:19;99876.38;;;20.74
65738;BMP280;52478;51.844;6.582;2023-12-22T07:21:46;99878.38;;;20.74
65738;BMP280;52478;51.844;6.582;2023-12-22T07:24:13;99868.34;;;20.71
65738;BMP280;52478;51.844;6.582;2023-12-22T07:26:39;99861.28;;;20.70
65738;BMP280;52478;51.844;6.582;2023-12-22T07:29:07;99864.94;;;20.65
65738;BMP280;52478;51.844;6.582;2023-12-22T07:31:33;99881.31;;;20.68
65738;BMP280;52478;51.844;6.582;2023-12-22T07:34:00;99894.06;;;20.64
65738;BMP280;52478;51.844;6.582;2023-12-22T07:36:26;99896.84;;;20.64
65738;BMP280;52478;51.844;6.582;2023-12-22T07:38:53;99899.38;;;20.62
65738;BMP280;52478;51.844;6.582;2023-12-22T07:41:22;99910.50;;;20.62
65738;BMP280;52478;51.844;6.582;2023-12-22T07:43:48;99910.50;;;20.62
65738;BMP280;52478;51.844;6.582;2023-12-22T07:46:19;99909.00;;;20.61
65738;BMP280;52478;51.844;6.582;2023-12-22T07:48:47;99913.84;;;20.60
65738;BMP280;52478;51.844;6.582;2023-12-22T07:51:13;99922.91;;;20.61
65738;BMP280;52478;51.844;6.582;2023-12-22T07:53:40;99921.63;;;20.62
65738;BMP280;52478;51.844;6.582;2023-12-22T07:56:06;99920.88;;;20.61
65738;BMP280;52478;51.844;6.582;2023-12-22T07:58:33;99921.44;;;20.60
65738;BMP280;52478;51.844;6.582;2023-12-22T08:00:59;99931.81;;;20.59
65738;BMP280;52478;51.844;6.582;2023-12-22T08:03:27;99924.22;;;20.60
65738;BMP280;52478;51.844;6.582;2023-12-22T08:05:54;99935.34;;;20.60
65738;BMP280;52478;51.844;6.582;2023-12-22T08:08:21;99923.66;;;20.61
65738;BMP280;52478;51.844;6.582;2023-12-22T08:10:47;99928.72;;;20.63
65738;BMP280;52478;51.844;6.582;2023-12-22T08:13:14;99919.09;;;20.64
65738;BMP280;52478;51.844;6.582;2023-12-22T08:15:40;99937.06;;;20.63
65738;BMP280;52478;51.844;6.582;2023-12-22T08:18:07;99923.16;;;20.63
65738;BMP280;52478;51.844;6.582;2023-12-22T08:20:35;99917.59;;;20.63
65738;BMP280;52478;51.844;6.582;2023-12-22T08:23:02;99919.78;;;20.64
65738;BMP280;52478;51.844;6.582;2023-12-22T08:25:29;99914.97;;;20.65
65738;BMP280;52478;51.844;6.582;2023-12-22T08:27:55;99908.66;;;20.64
65738;BMP280;52478;51.844;6.582;2023-12-22T08:30:22;99914.97;;;20.65
65738;BMP280;52478;51.844;6.582;2023-12-22T08:32:49;99904.63;;;20.65
65738;BMP280;52478;51.844;6.582;2023-12-22T08:35:16;99921.31;;;20.65
65738;BMP280;52478;51.844;6.582;2023-12-22T08:37:44;99910.75;;;20.64
65738;BMP280;52478;51.844;6.582;2023-12-22T08:40:10;99909.41;;;20.65
65738;BMP280;52478;51.844;6.582;2023-12-22T08:42:37;99914.97;;;20.65
65738;BMP280;52478;51.844;6.582;2023-12-22T08:45:05;99914.97;;;20.65
65738;BMP280;52478;51.844;6.582;2023-12-22T08:47:32;99907.97;;;20.64
65738;BMP280;52478;51.844;6.582;2023-12-22T08:49:58;99902.41;;;20.64
65738;BMP280;52478;51.844;6.582;2023-12-22T08:52:28;99907.97;;;20.64
65738;BMP280;52478;51.844;6.582;2023-12-22T08:54:56;99912.75;;;20.63
65738;BMP280;52478;51.844;6.582;2023-12-22T08:57:23;99913.53;;;20.64
65738;BMP280;52478;51.844;6.582;2023-12-22T08:59:49;99914.22;;;20.64
65738;BMP280;52478;51.844;6.582;2023-12-22T09:02:16;99919.59;;;20.62
65738;BMP280;52478;51.844;6.582;2023-12-22T09:04:42;99907.19;;;20.63
65738;BMP280;52478;51.844;6.582;2023-12-22T09:07:08;99892.56;;;20.63
65738;BMP280;52478;51.844;6.582;2023-12-22T09:09:35;99899.63;;;20.64
65738;BMP280;52478;51.844;6.582;2023-12-22T09:12:03;99900.91;;;20.63
65738;BMP280;52478;51.844;6.582;2023-12-22T09:14:30;99899.63;;;20.64
65738;BMP280;52478;51.844;6.582;2023-12-22T09:16:56;99899.63;;;20.64
65738;BMP280;52478;51.844;6.582;2023-12-22T09:19:23;99878.66;;;20.63
65738;BMP280;52478;51.844;6.582;2023-12-22T09:21:50;99879.41;;;20.63
65738;BMP280;52478;51.844;6.582;2023-12-22T09:24:16;99880.16;;;20.64
65738;BMP280;52478;51.844;6.582;2023-12-22T09:26:42;99873.09;;;20.63
65738;BMP280;52478;51.844;6.582;2023-12-22T09:29:10;99877.13;;;20.62
65738;BMP280;52478;51.844;6.582;2023-12-22T09:31:37;99873.09;;;20.63
65738;BMP280;52478;51.844;6.582;2023-12-22T09:34:03;99878.66;;;20.63
65738;BMP280;52478;51.844;6.582;2023-12-22T09:36:30;99877.91;;;20.62
65738;BMP280;52478;51.844;6.582;2023-12-22T09:38:57;99873.09;;;20.63
65738;BMP280;52478;51.844;6.582;2023-12-22T09:41:24;99877.91;;;20.62
65738;BMP280;52478;51.844;6.582;2023-12-22T09:43:51;99888.25;;;20.62
65738;BMP280;52478;51.844;6.582;2023-12-22T09:46:20;99886.25;;;20.62
65738;BMP280;52478;51.844;6.582;2023-12-22T09:48:49;99874.34;;;20.62
65738;BMP280;52478;51.844;6.582;2023-12-22T09:51:16;99877.91;;;20.62
65738;BMP280;52478;51.844;6.582;2023-12-22T09:53:44;99876.41;;;20.61
65738;BMP280;52478;51.844;6.582;2023-12-22T09:56:11;99867.53;;;20.63
65738;BMP280;52478;51.844;6.582;2023-12-22T09:58:39;99855.66;;;20.62
65738;BMP280;52478;51.844;6.582;2023-12-22T10:01:06;99847.84;;;20.61
65738;BMP280;52478;51.844;6.582;2023-12-22T10:03:36;99854.91;;;20.62
65738;BMP280;52478;51.844;6.582;2023-12-22T10:06:03;99853.63;;;20.63
65738;BMP280;52478;51.844;6.582;2023-12-22T10:08:32;99861.97;;;20.63
65738;BMP280;52478;51.844;6.582;2023-12-22T10:10:59;99858.97;;;20.61
65738;BMP280;52478;51.844;6.582;2023-12-22T10:13:25;99868.63;;;20.60
65738;BMP280;52478;51.844;6.582;2023-12-22T10:15:53;99851.38;;;20.61
65738;BMP280;52478;51.844;6.582;2023-12-22T10:18:21;99865.28;;;20.61
65738;BMP280;52478;51.844;6.582;2023-12-22T10:20:49;99856.41;;;20.63
65738;BMP280;52478;51.844;6.582;2023-12-22T10:23:15;99863.22;;;20.62
65738;BMP280;52478;51.844;6.582;2023-12-22T10:25:42;99856.41;;;20.63
65738;BMP280;52478;51.844;6.582;2023-12-22T10:28:10;99856.41;;;20.63
65738;BMP280;52478;51.844;6.582;2023-12-22T10:30:39;99852.34;;;20.64
65738;BMP280;52478;51.844;6.582;2023-12-22T10:33:06;99858.63;;;20.64
65738;BMP280;52478;51.844;6.582;2023-12-22T10:35:33;99857.91;;;20.64
65738;BMP280;52478;51.844;6.582;2023-12-22T10:38:01;99844.72;;;20.64
65738;BMP280;52478;51.844;6.582;2023-12-22T10:40:27;99853.81;;;20.65
65738;BMP280;52478;51.844;6.582;2023-12-22T10:42:54;99864.19;;;20.64
65738;BMP280;52478;51.844;6.582;2023-12-22T10:45:21;99860.88;;;20.66
65738;BMP280;52478;51.844;6.582;2023-12-22T10:47:48;99857.34;;;20.65
65738;BMP280;52478;51.844;6.582;2023-12-22T10:50:15;99859.38;;;20.65
65738;BMP280;52478;51.844;6.582;2023-12-22T10:52:48;99867.72;;;20.65
65738;BMP280;52478;51.844;6.582;2023-12-22T10:55:16;99847.50;;;20.64
65738;BMP280;52478;51.844;6.582;2023-12-22T10:57:45;99852.34;;;20.64
65738;BMP280;52478;51.844;6.582;2023-12-22T11:00:13;99852.34;;;20.64
65738;BMP280;52478;51.844;6.582;2023-12-22T11:02:42;99848.25;;;20.65
65738;BMP280;52478;51.844;6.582;2023-12-22T11:05:10;99851.59;;;20.63
65738;BMP280;52478;51.844;6.582;2023-12-22T11:07:37;99853.81;;;20.65
65738;BMP280;52478;51.844;6.582;2023-12-22T11:10:06;99852.34;;;20.64
65738;BMP280;52478;51.844;6.582;2023-12-22T11:12:35;99848.25;;;20.65
65738;BMP280;52478;51.844;6.582;2023-12-22T11:15:02;99842.50;;;20.63
65738;BMP280;52478;51.844;6.582;2023-12-22T11:17:33;99851.78;;;20.65
65738;BMP280;52478;51.844;6.582;2023-12-22T11:20:01;99849.75;;;20.66
65738;BMP280;52478;51.844;6.582;2023-12-22T11:22:31;99842.69;;;20.65
65738;BMP280;52478;51.844;6.582;2023-12-22T11:25:00;99846.22;;;20.65
65738;BMP280;52478;51.844;6.582;2023-12-22T11:27:27;99837.13;;;20.65
65738;BMP280;52478;51.844;6.582;2023-12-22T11:29:56;99834.34;;;20.65
65738;BMP280;52478;51.844;6.582;2023-12-22T11:32:25;99835.66;;;20.64
65738;BMP280;52478;51.844;6.582;2023-12-22T11:34:53;99830.09;;;20.64
65738;BMP280;52478;51.844;6.582;2023-12-22T11:37:20;99839.16;;;20.64
65738;BMP280;52478;51.844;6.582;2023-12-22T11:39:47;99835.66;;;20.64
65738;BMP280;52478;51.844;6.582;2023-12-22T11:42:17;99815.44;;;20.63
65738;BMP280;52478;51.844;6.582;2023-12-22T11:44:44;99824.53;;;20.64
65738;BMP280;52478;51.844;6.582;2023-12-22T11:47:13;99819.69;;;20.64
65738;BMP280;52478;51.844;6.582;2023-12-22T11:49:40;99803.72;;;20.57
65738;BMP280;52478;51.844;6.582;2023-12-22T11:52:11;99813.44;;;20.64
65738;BMP280;52478;51.844;6.582;2023-12-22T11:54:45;99809.69;;;20.61
65738;BMP280;52478;51.844;6.582;2023-12-22T11:57:31;99804.53;;;20.65
65738;BMP280;52478;51.844;6.582;2023-12-22T11:59:59;99804.53;;;20.65
65738;BMP280;52478;51.844;6.582;2023-12-22T12:02:29;99808.03;;;20.66
65738;BMP280;52478;51.844;6.582;2023-12-22T12:04:57;99809.56;;;20.67
65738;BMP280;52478;51.844;6.582;2023-12-22T12:07:38;99826.00;;;20.65
65738;BMP280;52478;51.844;6.582;2023-12-22T12:10:05;99817.91;;;20.67
65738;BMP280;52478;51.844;6.582;2023-12-22T12:12:31;99812.88;;;20.65
65738;BMP280;52478;51.844;6.582;2023-12-22T12:15:06;99814.34;;;20.66
65738;BMP280;52478;51.844;6.582;2023-12-22T12:17:37;99806.03;;;20.66
65738;BMP280;52478;51.844;6.582;2023-12-22T12:20:06;99815.13;;;20.67
65738;BMP280;52478;51.844;6.582;2023-12-22T12:22:33;99806.03;;;20.66
65738;BMP280;52478;51.844;6.582;2023-12-22T12:25:00;99801.22;;;20.67
65738;BMP280;52478;51.844;6.582;2023-12-22T12:27:27;99790.09;;;20.67
65738;BMP280;52478;51.844;6.582;2023-12-22T12:29:54;99778.97;;;20.67
65738;BMP280;52478;51.844;6.582;2023-12-22T12:32:23;99773.41;;;20.67
65738;BMP280;52478;51.844;6.582;2023-12-22T12:34:51;99767.84;;;20.67
65738;BMP280;52478;51.844;6.582;2023-12-22T12:37:18;99760.78;;;20.66
65738;BMP280;52478;51.844;6.582;2023-12-22T12:39:46;99762.28;;;20.67
65738;BMP280;52478;51.844;6.582;2023-12-22T12:42:15;99755.22;;;20.66
65738;BMP280;52478;51.844;6.582;2023-12-22T12:44:42;99767.84;;;20.67
65738;BMP280;52478;51.844;6.582;2023-12-22T12:47:14;99763.56;;;20.66
65738;BMP280;52478;51.844;6.582;2023-12-22T12:49:40;99767.44;;;20.63
65738;BMP280;52478;51.844;6.582;2023-12-22T12:52:13;99767.97;;;20.61
65738;BMP280;52478;51.844;6.582;2023-12-22T12:54:39;99771.91;;;20.66
65738;BMP280;52478;51.844;6.582;2023-12-22T12:57:06;99759.28;;;20.65
65738;BMP280;52478;51.844;6.582;2023-12-22T12:59:32;99763.38;;;20.64
65738;BMP280;52478;51.844;6.582;2023-12-22T13:02:00;99759.28;;;20.65
65738;BMP280;52478;51.844;6.582;2023-12-22T13:04:36;99753.72;;;20.65
65738;BMP280;52478;51.844;6.582;2023-12-22T13:07:03;99759.28;;;20.65
65738;BMP280;52478;51.844;6.582;2023-12-22T13:09:33;99764.84;;;20.65
65738;BMP280;52478;51.844;6.582;2023-12-22T13:12:00;99753.72;;;20.65
65738;BMP280;52478;51.844;6.582;2023-12-22T13:14:26;99752.25;;;20.64
65738;BMP280;52478;51.844;6.582;2023-12-22T13:16:54;99753.72;;;20.65
65738;BMP280;52478;51.844;6.582;2023-12-22T13:19:21;99741.13;;;20.64
65738;BMP280;52478;51.844;6.582;2023-12-22T13:21:49;99750.75;;;20.63
65738;BMP280;52478;51.844;6.582;2023-12-22T13:24:17;99742.94;;;20.61
65738;BMP280;52478;51.844;6.582;2023-12-22T13:26:45;99778.56;;;20.63
65738;BMP280;52478;51.844;6.582;2023-12-22T13:29:12;99761.88;;;20.63
65738;BMP280;52478;51.844;6.582;2023-12-22T13:31:40;99765.94;;;20.62
65738;BMP280;52478;51.844;6.582;2023-12-22T13:34:12;99769.63;;;20.64
65738;BMP280;52478;51.844;6.582;2023-12-22T13:36:38;99770.41;;;20.65
65738;BMP280;52478;51.844;6.582;2023-12-22T13:39:06;99766.34;;;20.66
65738;BMP280;52478;51.844;6.582;2023-12-22T13:41:33;99771.91;;;20.66
65738;BMP280;52478;51.844;6.582;2023-12-22T13:44:04;99762.28;;;20.67
65738;BMP280;52478;51.844;6.582;2023-12-22T13:46:31;99756.38;;;20.70
65738;BMP280;52478;51.844;6.582;2023-12-22T13:48:58;99771.22;;;20.73
65738;BMP280;52478;51.844;6.582;2023-12-22T13:51:25;99762.34;;;20.74
65738;BMP280;52478;51.844;6.582;2023-12-22T13:53:51;99777.19;;;20.77
65738;BMP280;52478;51.844;6.582;2023-12-22T13:56:18;99781.66;;;20.80
65738;BMP280;52478;51.844;6.582;2023-12-22T13:58:44;99779.81;;;20.82
65738;BMP280;52478;51.844;6.582;2023-12-22T14:01:16;99769.63;;;20.85
65738;BMP280;52478;51.844;6.582;2023-12-22T14:03:43;99783.94;;;20.89
65738;BMP280;52478;51.844;6.582;2023-12-22T14:06:09;99786.94;;;20.91
65738;BMP280;52478;51.844;6.582;2023-12-22T14:08:38;99782.88;;;20.92
65738;BMP280;52478;51.844;6.582;2023-12-22T14:11:05;99798.47;;;20.95